sensor_id;sensor_type;location;lat;lon;timestamp;P1;durP1;ratioP1;P2;durP2;ratioP2
7879;SDS011;3985;49.366;2.738;2023-02-28T00:00:03;19.00;;;19.00;;
7879;SDS011;3985;49.366;2.738;2023-02-28T00:02:35;25.00;;;22.33;;
7879;SDS011;3985;49.366;2.738;2023-02-28T00:05:03;22.67;;;18.00;;
7879;SDS011;3985;49.366;2.738;2023-02-28T00:07:31;20.00;;;20.00;;
7879;SDS011;3985;49.366;2.738;2023-02-28T00:10:01;27.67;;;27.67;;
7879;SDS011;3985;49.366;2.738;2023-02-28T00:12:28;24.67;;;22.33;;
7879;SDS011;3985;49.366;2.738;2023-02-28T00:14:56;23.00;;;22.00;;
7879;SDS011;3985;49.366;2.738;2023-02-28T00:17:24;31.33;;;24.33;;
7879;SDS011;3985;49.366;2.738;2023-02-28T00:19:51;16.67;;;16.67;;
7879;SDS011;3985;49.366;2.738;2023-02-28T00:22:20;24.00;;;22.33;;
7879;SDS011;3985;49.366;2.738;2023-02-28T00:24:47;26.00;;;18.00;;
7879;SDS011;3985;49.366;2.738;2023-02-28T00:27:16;25.00;;;23.00;;
7879;SDS011;3985;49.366;2.738;2023-02-28T00:29:45;20.67;;;20.00;;
7879;SDS011;3985;49.366;2.738;2023-02-28T00:32:13;26.33;;;25.67;;
7879;SDS011;3985;49.366;2.738;2023-02-28T00:34:40;30.00;;;25.67;;
7879;SDS011;3985;49.366;2.738;2023-02-28T00:37:08;26.00;;;24.00;;
7879;SDS011;3985;49.366;2.738;2023-02-28T00:39:38;29.67;;;26.67;;
7879;SDS011;3985;49.366;2.738;2023-02-28T00:42:07;22.33;;;22.33;;
7879;SDS011;3985;49.366;2.738;2023-02-28T00:44:36;25.00;;;20.67;;
7879;SDS011;3985;49.366;2.738;2023-02-28T00:47:03;28.00;;;25.00;;
7879;SDS011;3985;49.366;2.738;2023-02-28T00:49:31;26.67;;;19.67;;
7879;SDS011;3985;49.366;2.738;2023-02-28T00:51:58;34.00;;;32.00;;
7879;SDS011;3985;49.366;2.738;2023-02-28T00:54:26;30.33;;;26.00;;
7879;SDS011;3985;49.366;2.738;2023-02-28T00:56:53;23.33;;;23.00;;
7879;SDS011;3985;49.366;2.738;2023-02-28T00:59:21;27.33;;;25.00;;
7879;SDS011;3985;49.366;2.738;2023-02-28T01:01:50;23.33;;;23.33;;
7879;SDS011;3985;49.366;2.738;2023-02-28T01:04:18;17.00;;;17.00;;
7879;SDS011;3985;49.366;2.738;2023-02-28T01:06:46;21.33;;;21.33;;
7879;SDS011;3985;49.366;2.738;2023-02-28T01:09:14;20.33;;;20.33;;
7879;SDS011;3985;49.366;2.738;2023-02-28T01:11:42;27.33;;;22.67;;
7879;SDS011;3985;49.366;2.738;2023-02-28T01:14:11;22.67;;;18.00;;
7879;SDS011;3985;49.366;2.738;2023-02-28T01:16:39;16.33;;;16.33;;
7879;SDS011;3985;49.366;2.738;2023-02-28T01:19:09;29.00;;;28.33;;
7879;SDS011;3985;49.366;2.738;2023-02-28T01:21:37;19.33;;;19.33;;
7879;SDS011;3985;49.366;2.738;2023-02-28T01:24:05;32.33;;;27.33;;
7879;SDS011;3985;49.366;2.738;2023-02-28T01:26:33;26.33;;;24.67;;
7879;SDS011;3985;49.366;2.738;2023-02-28T01:29:14;27.33;;;22.67;;
7879;SDS011;3985;49.366;2.738;2023-02-28T01:31:42;19.00;;;19.00;;
7879;SDS011;3985;49.366;2.738;2023-02-28T01:34:13;22.00;;;21.00;;
7879;SDS011;3985;49.366;2.738;2023-02-28T01:36:40;18.00;;;15.67;;
7879;SDS011;3985;49.366;2.738;2023-02-28T01:39:08;18.67;;;18.00;;
7879;SDS011;3985;49.366;2.738;2023-02-28T01:41:37;23.00;;;18.67;;
7879;SDS011;3985;49.366;2.738;2023-02-28T01:47:08;11.00;;;8.33;;
7879;SDS011;3985;49.366;2.738;2023-02-28T01:49:37;19.33;;;19.33;;
7879;SDS011;3985;49.366;2.738;2023-02-28T01:52:05;16.00;;;14.00;;
7879;SDS011;3985;49.366;2.738;2023-02-28T01:54:33;26.00;;;22.00;;
7879;SDS011;3985;49.366;2.738;2023-02-28T01:57:03;12.67;;;12.33;;
7879;SDS011;3985;49.366;2.738;2023-02-28T01:59:33;18.00;;;15.00;;
7879;SDS011;3985;49.366;2.738;2023-02-28T02:02:02;24.67;;;17.67;;
7879;SDS011;3985;49.366;2.738;2023-02-28T02:04:32;21.33;;;17.67;;
7879;SDS011;3985;49.366;2.738;2023-02-28T02:07:05;20.00;;;18.67;;
7879;SDS011;3985;49.366;2.738;2023-02-28T02:09:33;31.00;;;24.33;;
7879;SDS011;3985;49.366;2.738;2023-02-28T02:12:01;24.33;;;21.67;;
7879;SDS011;3985;49.366;2.738;2023-02-28T02:14:43;28.00;;;23.00;;
7879;SDS011;3985;49.366;2.738;2023-02-28T02:17:20;22.00;;;20.33;;
7879;SDS011;3985;49.366;2.738;2023-02-28T02:19:56;24.33;;;24.33;;
7879;SDS011;3985;49.366;2.738;2023-02-28T02:26:10;25.00;;;25.00;;
7879;SDS011;3985;49.366;2.738;2023-02-28T02:28:55;19.33;;;19.33;;
7879;SDS011;3985;49.366;2.738;2023-02-28T02:31:51;20.67;;;20.33;;
7879;SDS011;3985;49.366;2.738;2023-02-28T02:34:28;18.67;;;18.67;;
7879;SDS011;3985;49.366;2.738;2023-02-28T02:37:08;22.67;;;19.67;;
7879;SDS011;3985;49.366;2.738;2023-02-28T02:39:44;34.67;;;31.00;;
7879;SDS011;3985;49.366;2.738;2023-02-28T02:42:16;34.00;;;30.67;;
7879;SDS011;3985;49.366;2.738;2023-02-28T02:44:48;22.00;;;22.00;;
7879;SDS011;3985;49.366;2.738;2023-02-28T02:47:20;21.33;;;21.33;;
7879;SDS011;3985;49.366;2.738;2023-02-28T02:49:52;29.00;;;28.00;;
7879;SDS011;3985;49.366;2.738;2023-02-28T02:52:23;30.00;;;27.00;;
7879;SDS011;3985;49.366;2.738;2023-02-28T02:54:55;32.33;;;30.33;;
7879;SDS011;3985;49.366;2.738;2023-02-28T02:57:24;13.00;;;13.00;;
7879;SDS011;3985;49.366;2.738;2023-02-28T02:59:56;24.33;;;22.00;;
7879;SDS011;3985;49.366;2.738;2023-02-28T03:02:24;24.33;;;24.33;;
7879;SDS011;3985;49.366;2.738;2023-02-28T03:04:56;23.00;;;20.67;;
7879;SDS011;3985;49.366;2.738;2023-02-28T03:07:27;26.33;;;24.33;;
7879;SDS011;3985;49.366;2.738;2023-02-28T03:09:56;32.00;;;30.33;;
7879;SDS011;3985;49.366;2.738;2023-02-28T03:12:26;25.67;;;25.67;;
7879;SDS011;3985;49.366;2.738;2023-02-28T03:15:02;24.33;;;21.00;;
7879;SDS011;3985;49.366;2.738;2023-02-28T03:17:47;27.67;;;25.67;;
7879;SDS011;3985;49.366;2.738;2023-02-28T03:20:30;25.00;;;25.00;;
7879;SDS011;3985;49.366;2.738;2023-02-28T03:23:08;24.00;;;21.67;;
7879;SDS011;3985;49.366;2.738;2023-02-28T03:25:46;26.00;;;21.33;;
7879;SDS011;3985;49.366;2.738;2023-02-28T03:28:22;29.00;;;26.67;;
7879;SDS011;3985;49.366;2.738;2023-02-28T03:30:59;23.67;;;22.67;;
7879;SDS011;3985;49.366;2.738;2023-02-28T03:33:30;26.00;;;26.00;;
7879;SDS011;3985;49.366;2.738;2023-02-28T03:36:03;25.33;;;25.33;;
7879;SDS011;3985;49.366;2.738;2023-02-28T03:38:33;37.33;;;25.33;;
7879;SDS011;3985;49.366;2.738;2023-02-28T03:41:05;31.00;;;26.33;;
7879;SDS011;3985;49.366;2.738;2023-02-28T03:43:36;33.00;;;28.00;;
7879;SDS011;3985;49.366;2.738;2023-02-28T03:46:08;26.33;;;24.33;;
7879;SDS011;3985;49.366;2.738;2023-02-28T03:48:38;33.67;;;29.00;;
7879;SDS011;3985;49.366;2.738;2023-02-28T03:51:14;37.67;;;33.00;;
7879;SDS011;3985;49.366;2.738;2023-02-28T03:53:43;34.33;;;31.33;;
7879;SDS011;3985;49.366;2.738;2023-02-28T03:56:12;35.33;;;35.33;;
7879;SDS011;3985;49.366;2.738;2023-02-28T03:58:44;28.00;;;25.00;;
7879;SDS011;3985;49.366;2.738;2023-02-28T04:01:16;32.33;;;30.00;;
7879;SDS011;3985;49.366;2.738;2023-02-28T04:03:49;29.00;;;28.67;;
7879;SDS011;3985;49.366;2.738;2023-02-28T04:06:18;29.33;;;27.00;;
7879;SDS011;3985;49.366;2.738;2023-02-28T04:08:47;31.00;;;27.00;;
7879;SDS011;3985;49.366;2.738;2023-02-28T04:11:18;20.00;;;20.00;;
7879;SDS011;3985;49.366;2.738;2023-02-28T04:13:49;26.33;;;22.67;;
7879;SDS011;3985;49.366;2.738;2023-02-28T04:16:17;31.67;;;24.33;;
7879;SDS011;3985;49.366;2.738;2023-02-28T04:18:44;35.33;;;35.33;;
7879;SDS011;3985;49.366;2.738;2023-02-28T04:21:12;44.00;;;43.00;;
7879;SDS011;3985;49.366;2.738;2023-02-28T04:23:44;40.67;;;39.00;;
7879;SDS011;3985;49.366;2.738;2023-02-28T04:26:12;34.00;;;34.00;;
7879;SDS011;3985;49.366;2.738;2023-02-28T04:28:39;35.00;;;35.00;;
7879;SDS011;3985;49.366;2.738;2023-02-28T04:31:08;36.33;;;33.33;;
7879;SDS011;3985;49.366;2.738;2023-02-28T04:33:36;34.33;;;33.00;;
7879;SDS011;3985;49.366;2.738;2023-02-28T04:36:05;27.00;;;27.00;;
7879;SDS011;3985;49.366;2.738;2023-02-28T04:38:35;54.33;;;49.33;;
7879;SDS011;3985;49.366;2.738;2023-02-28T04:41:05;30.33;;;30.33;;
7879;SDS011;3985;49.366;2.738;2023-02-28T04:43:33;40.00;;;37.67;;
7879;SDS011;3985;49.366;2.738;2023-02-28T04:46:02;34.33;;;34.33;;
7879;SDS011;3985;49.366;2.738;2023-02-28T04:48:31;37.33;;;37.33;;
7879;SDS011;3985;49.366;2.738;2023-02-28T04:51:00;37.33;;;37.33;;
7879;SDS011;3985;49.366;2.738;2023-02-28T04:53:28;40.00;;;39.50;;
7879;SDS011;3985;49.366;2.738;2023-02-28T04:55:57;40.25;;;39.75;;
7879;SDS011;3985;49.366;2.738;2023-02-28T04:58:26;41.25;;;39.75;;
7879;SDS011;3985;49.366;2.738;2023-02-28T05:01:01;44.50;;;42.00;;
7879;SDS011;3985;49.366;2.738;2023-02-28T05:03:30;47.25;;;42.75;;
7879;SDS011;3985;49.366;2.738;2023-02-28T05:05:59;47.50;;;41.50;;
7879;SDS011;3985;49.366;2.738;2023-02-28T05:08:26;41.00;;;39.00;;
7879;SDS011;3985;49.366;2.738;2023-02-28T05:10:57;40.25;;;38.00;;
7879;SDS011;3985;49.366;2.738;2023-02-28T05:13:27;52.50;;;47.00;;
7879;SDS011;3985;49.366;2.738;2023-02-28T05:15:55;46.50;;;43.50;;
7879;SDS011;3985;49.366;2.738;2023-02-28T05:18:22;40.75;;;39.00;;
7879;SDS011;3985;49.366;2.738;2023-02-28T05:20:50;43.50;;;41.75;;
7879;SDS011;3985;49.366;2.738;2023-02-28T05:23:17;40.33;;;40.33;;
7879;SDS011;3985;49.366;2.738;2023-02-28T05:25:46;36.67;;;36.67;;
7879;SDS011;3985;49.366;2.738;2023-02-28T05:28:14;44.00;;;41.33;;
7879;SDS011;3985;49.366;2.738;2023-02-28T05:30:42;47.50;;;43.50;;
7879;SDS011;3985;49.366;2.738;2023-02-28T05:33:10;47.75;;;41.50;;
7879;SDS011;3985;49.366;2.738;2023-02-28T05:35:38;50.50;;;43.25;;
7879;SDS011;3985;49.366;2.738;2023-02-28T05:38:07;49.00;;;43.75;;
7879;SDS011;3985;49.366;2.738;2023-02-28T05:40:34;45.25;;;42.00;;
7879;SDS011;3985;49.366;2.738;2023-02-28T05:43:02;41.75;;;41.00;;
7879;SDS011;3985;49.366;2.738;2023-02-28T05:45:29;33.50;;;33.50;;
7879;SDS011;3985;49.366;2.738;2023-02-28T05:47:58;41.75;;;41.25;;
7879;SDS011;3985;49.366;2.738;2023-02-28T05:50:26;40.75;;;38.75;;
7879;SDS011;3985;49.366;2.738;2023-02-28T05:52:53;46.00;;;42.00;;
7879;SDS011;3985;49.366;2.738;2023-02-28T05:55:21;31.67;;;31.67;;
7879;SDS011;3985;49.366;2.738;2023-02-28T05:57:49;52.00;;;45.75;;
7879;SDS011;3985;49.366;2.738;2023-02-28T06:00:17;40.75;;;40.00;;
7879;SDS011;3985;49.366;2.738;2023-02-28T06:02:45;26.33;;;26.33;;
7879;SDS011;3985;49.366;2.738;2023-02-28T06:05:14;49.25;;;43.50;;
7879;SDS011;3985;49.366;2.738;2023-02-28T06:07:43;47.00;;;44.00;;
7879;SDS011;3985;49.366;2.738;2023-02-28T06:10:11;44.50;;;39.75;;
7879;SDS011;3985;49.366;2.738;2023-02-28T06:12:40;45.00;;;43.00;;
7879;SDS011;3985;49.366;2.738;2023-02-28T06:15:11;41.75;;;41.25;;
7879;SDS011;3985;49.366;2.738;2023-02-28T06:17:41;40.25;;;40.25;;
7879;SDS011;3985;49.366;2.738;2023-02-28T06:20:24;39.33;;;37.33;;
7879;SDS011;3985;49.366;2.738;2023-02-28T06:22:54;48.00;;;45.50;;
7879;SDS011;3985;49.366;2.738;2023-02-28T06:25:23;43.00;;;42.25;;
7879;SDS011;3985;49.366;2.738;2023-02-28T06:27:51;52.75;;;46.50;;
7879;SDS011;3985;49.366;2.738;2023-02-28T06:30:19;41.75;;;41.00;;
7879;SDS011;3985;49.366;2.738;2023-02-28T06:32:49;41.00;;;40.67;;
7879;SDS011;3985;49.366;2.738;2023-02-28T06:35:17;32.00;;;31.25;;
7879;SDS011;3985;49.366;2.738;2023-02-28T06:37:46;43.00;;;40.75;;
7879;SDS011;3985;49.366;2.738;2023-02-28T06:40:14;51.25;;;43.75;;
7879;SDS011;3985;49.366;2.738;2023-02-28T06:42:42;42.25;;;41.25;;
7879;SDS011;3985;49.366;2.738;2023-02-28T06:45:10;43.50;;;41.75;;
7879;SDS011;3985;49.366;2.738;2023-02-28T06:47:39;43.25;;;42.25;;
7879;SDS011;3985;49.366;2.738;2023-02-28T06:50:08;43.50;;;41.50;;
7879;SDS011;3985;49.366;2.738;2023-02-28T06:52:36;45.25;;;43.00;;
7879;SDS011;3985;49.366;2.738;2023-02-28T06:55:07;53.25;;;46.75;;
7879;SDS011;3985;49.366;2.738;2023-02-28T06:57:35;65.50;;;56.25;;
7879;SDS011;3985;49.366;2.738;2023-02-28T07:00:06;49.75;;;45.00;;
7879;SDS011;3985;49.366;2.738;2023-02-28T07:02:35;46.50;;;44.50;;
7879;SDS011;3985;49.366;2.738;2023-02-28T07:05:03;45.25;;;41.00;;
7879;SDS011;3985;49.366;2.738;2023-02-28T07:07:33;35.75;;;35.75;;
7879;SDS011;3985;49.366;2.738;2023-02-28T07:10:01;44.75;;;42.75;;
7879;SDS011;3985;49.366;2.738;2023-02-28T07:12:30;41.75;;;40.00;;
7879;SDS011;3985;49.366;2.738;2023-02-28T07:14:57;52.75;;;43.00;;
7879;SDS011;3985;49.366;2.738;2023-02-28T07:17:25;43.50;;;42.25;;
7879;SDS011;3985;49.366;2.738;2023-02-28T07:19:53;31.33;;;31.33;;
7879;SDS011;3985;49.366;2.738;2023-02-28T07:22:20;42.25;;;41.50;;
7879;SDS011;3985;49.366;2.738;2023-02-28T07:24:47;49.00;;;44.00;;
7879;SDS011;3985;49.366;2.738;2023-02-28T07:27:17;46.50;;;43.50;;
7879;SDS011;3985;49.366;2.738;2023-02-28T07:29:52;45.25;;;43.00;;
7879;SDS011;3985;49.366;2.738;2023-02-28T07:32:20;50.50;;;47.00;;
7879;SDS011;3985;49.366;2.738;2023-02-28T07:34:47;48.00;;;45.00;;
7879;SDS011;3985;49.366;2.738;2023-02-28T07:37:15;59.00;;;48.00;;
7879;SDS011;3985;49.366;2.738;2023-02-28T07:39:42;48.50;;;45.75;;
7879;SDS011;3985;49.366;2.738;2023-02-28T07:42:09;60.25;;;52.00;;
7879;SDS011;3985;49.366;2.738;2023-02-28T07:44:37;48.00;;;45.00;;
7879;SDS011;3985;49.366;2.738;2023-02-28T07:47:07;32.25;;;32.25;;
7879;SDS011;3985;49.366;2.738;2023-02-28T07:49:35;47.25;;;43.50;;
7879;SDS011;3985;49.366;2.738;2023-02-28T07:52:03;49.50;;;46.25;;
7879;SDS011;3985;49.366;2.738;2023-02-28T07:54:32;47.50;;;42.75;;
7879;SDS011;3985;49.366;2.738;2023-02-28T07:56:59;44.25;;;42.75;;
7879;SDS011;3985;49.366;2.738;2023-02-28T07:59:27;51.00;;;46.50;;
7879;SDS011;3985;49.366;2.738;2023-02-28T08:01:54;43.00;;;41.75;;
7879;SDS011;3985;49.366;2.738;2023-02-28T08:04:25;46.50;;;43.50;;
7879;SDS011;3985;49.366;2.738;2023-02-28T08:06:54;40.00;;;39.33;;
7879;SDS011;3985;49.366;2.738;2023-02-28T08:09:21;45.50;;;43.75;;
7879;SDS011;3985;49.366;2.738;2023-02-28T08:11:48;40.75;;;40.25;;
7879;SDS011;3985;49.366;2.738;2023-02-28T08:14:18;44.75;;;43.00;;
7879;SDS011;3985;49.366;2.738;2023-02-28T08:16:45;53.00;;;46.33;;
7879;SDS011;3985;49.366;2.738;2023-02-28T08:19:13;46.25;;;44.00;;
7879;SDS011;3985;49.366;2.738;2023-02-28T08:21:42;48.33;;;39.67;;
7879;SDS011;3985;49.366;2.738;2023-02-28T08:24:09;51.33;;;43.00;;
7879;SDS011;3985;49.366;2.738;2023-02-28T08:26:37;44.00;;;39.00;;
7879;SDS011;3985;49.366;2.738;2023-02-28T08:29:04;44.67;;;36.00;;
7879;SDS011;3985;49.366;2.738;2023-02-28T08:31:32;44.33;;;42.00;;
7879;SDS011;3985;49.366;2.738;2023-02-28T08:34:00;43.00;;;36.33;;
7879;SDS011;3985;49.366;2.738;2023-02-28T08:36:30;46.67;;;42.33;;
7879;SDS011;3985;49.366;2.738;2023-02-28T08:38:59;38.33;;;38.33;;
7879;SDS011;3985;49.366;2.738;2023-02-28T08:41:27;35.00;;;29.67;;
7879;SDS011;3985;49.366;2.738;2023-02-28T08:43:54;45.33;;;42.00;;
7879;SDS011;3985;49.366;2.738;2023-02-28T08:46:22;39.67;;;39.00;;
7879;SDS011;3985;49.366;2.738;2023-02-28T08:48:51;35.00;;;35.00;;
7879;SDS011;3985;49.366;2.738;2023-02-28T08:51:19;36.00;;;36.00;;
7879;SDS011;3985;49.366;2.738;2023-02-28T08:53:51;34.33;;;34.33;;
7879;SDS011;3985;49.366;2.738;2023-02-28T08:56:21;30.00;;;28.67;;
7879;SDS011;3985;49.366;2.738;2023-02-28T08:58:49;38.00;;;31.33;;
7879;SDS011;3985;49.366;2.738;2023-02-28T09:01:17;22.67;;;21.67;;
7879;SDS011;3985;49.366;2.738;2023-02-28T09:03:49;27.67;;;23.67;;
7879;SDS011;3985;49.366;2.738;2023-02-28T09:06:22;23.67;;;19.67;;
7879;SDS011;3985;49.366;2.738;2023-02-28T09:08:51;30.67;;;27.67;;
7879;SDS011;3985;49.366;2.738;2023-02-28T09:11:19;30.00;;;26.67;;
7879;SDS011;3985;49.366;2.738;2023-02-28T09:13:47;26.33;;;26.33;;
7879;SDS011;3985;49.366;2.738;2023-02-28T09:16:15;21.67;;;16.67;;
7879;SDS011;3985;49.366;2.738;2023-02-28T09:18:43;26.67;;;24.33;;
7879;SDS011;3985;49.366;2.738;2023-02-28T09:21:12;23.67;;;21.33;;
7879;SDS011;3985;49.366;2.738;2023-02-28T09:23:41;21.67;;;21.67;;
7879;SDS011;3985;49.366;2.738;2023-02-28T09:26:13;28.67;;;25.33;;
7879;SDS011;3985;49.366;2.738;2023-02-28T09:28:42;23.00;;;22.00;;
7879;SDS011;3985;49.366;2.738;2023-02-28T09:31:12;16.33;;;16.33;;
7879;SDS011;3985;49.366;2.738;2023-02-28T09:33:42;27.00;;;23.00;;
7879;SDS011;3985;49.366;2.738;2023-02-28T09:36:09;21.67;;;21.67;;
7879;SDS011;3985;49.366;2.738;2023-02-28T09:38:37;22.25;;;20.00;;
7879;SDS011;3985;49.366;2.738;2023-02-28T09:41:09;23.00;;;18.50;;
7879;SDS011;3985;49.366;2.738;2023-02-28T09:43:40;21.00;;;18.00;;
7879;SDS011;3985;49.366;2.738;2023-02-28T09:49:03;18.00;;;16.25;;
7879;SDS011;3985;49.366;2.738;2023-02-28T09:51:35;23.00;;;21.00;;
7879;SDS011;3985;49.366;2.738;2023-02-28T09:54:09;16.75;;;16.75;;
7879;SDS011;3985;49.366;2.738;2023-02-28T09:56:44;16.00;;;14.75;;
7879;SDS011;3985;49.366;2.738;2023-02-28T09:59:17;17.00;;;17.00;;
7879;SDS011;3985;49.366;2.738;2023-02-28T10:01:54;15.50;;;15.50;;
7879;SDS011;3985;49.366;2.738;2023-02-28T10:04:29;18.00;;;16.50;;
7879;SDS011;3985;49.366;2.738;2023-02-28T10:07:04;15.00;;;15.00;;
7879;SDS011;3985;49.366;2.738;2023-02-28T10:09:42;15.25;;;13.75;;
7879;SDS011;3985;49.366;2.738;2023-02-28T10:12:10;19.75;;;18.00;;
7879;SDS011;3985;49.366;2.738;2023-02-28T10:14:41;23.00;;;20.75;;
7879;SDS011;3985;49.366;2.738;2023-02-28T10:17:14;23.25;;;16.50;;
7879;SDS011;3985;49.366;2.738;2023-02-28T10:19:46;13.50;;;10.50;;
7879;SDS011;3985;49.366;2.738;2023-02-28T10:22:20;17.50;;;13.25;;
7879;SDS011;3985;49.366;2.738;2023-02-28T10:24:51;17.50;;;17.50;;
7879;SDS011;3985;49.366;2.738;2023-02-28T10:27:25;19.50;;;16.50;;
7879;SDS011;3985;49.366;2.738;2023-02-28T10:29:58;18.75;;;15.50;;
7879;SDS011;3985;49.366;2.738;2023-02-28T10:32:27;16.25;;;16.25;;
7879;SDS011;3985;49.366;2.738;2023-02-28T10:34:57;11.00;;;11.00;;
7879;SDS011;3985;49.366;2.738;2023-02-28T10:37:27;17.50;;;15.50;;
7879;SDS011;3985;49.366;2.738;2023-02-28T10:39:57;12.00;;;12.00;;
7879;SDS011;3985;49.366;2.738;2023-02-28T10:42:25;16.25;;;16.25;;
7879;SDS011;3985;49.366;2.738;2023-02-28T10:45:10;3.50;;;3.50;;
7879;SDS011;3985;49.366;2.738;2023-02-28T10:47:40;6.50;;;6.50;;
7879;SDS011;3985;49.366;2.738;2023-02-28T10:50:35;8.00;;;8.00;;
7879;SDS011;3985;49.366;2.738;2023-02-28T10:53:16;7.50;;;7.50;;
7879;SDS011;3985;49.366;2.738;2023-02-28T10:55:59;9.00;;;9.00;;
7879;SDS011;3985;49.366;2.738;2023-02-28T10:58:29;9.00;;;9.00;;
7879;SDS011;3985;49.366;2.738;2023-02-28T11:01:02;7.00;;;7.00;;
7879;SDS011;3985;49.366;2.738;2023-02-28T11:03:31;8.50;;;8.50;;
7879;SDS011;3985;49.366;2.738;2023-02-28T11:06:04;10.50;;;10.50;;
7879;SDS011;3985;49.366;2.738;2023-02-28T11:08:33;11.00;;;11.00;;
7879;SDS011;3985;49.366;2.738;2023-02-28T11:11:03;12.00;;;12.00;;
7879;SDS011;3985;49.366;2.738;2023-02-28T11:13:32;11.00;;;11.00;;
7879;SDS011;3985;49.366;2.738;2023-02-28T11:16:04;17.50;;;15.75;;
7879;SDS011;3985;49.366;2.738;2023-02-28T11:18:36;11.75;;;11.75;;
7879;SDS011;3985;49.366;2.738;2023-02-28T11:21:07;11.00;;;11.00;;
7879;SDS011;3985;49.366;2.738;2023-02-28T11:23:37;13.75;;;12.00;;
7879;SDS011;3985;49.366;2.738;2023-02-28T11:26:07;11.75;;;11.75;;
7879;SDS011;3985;49.366;2.738;2023-02-28T11:28:37;9.00;;;7.50;;
7879;SDS011;3985;49.366;2.738;2023-02-28T11:31:15;8.75;;;8.75;;
7879;SDS011;3985;49.366;2.738;2023-02-28T11:33:45;9.50;;;9.50;;
7879;SDS011;3985;49.366;2.738;2023-02-28T11:36:17;9.75;;;9.00;;
7879;SDS011;3985;49.366;2.738;2023-02-28T11:38:46;12.75;;;10.50;;
7879;SDS011;3985;49.366;2.738;2023-02-28T11:44:05;8.00;;;8.00;;
7879;SDS011;3985;49.366;2.738;2023-02-28T11:46:45;6.50;;;6.50;;
7879;SDS011;3985;49.366;2.738;2023-02-28T11:49:19;8.00;;;8.00;;
7879;SDS011;3985;49.366;2.738;2023-02-28T11:51:57;15.25;;;14.00;;
7879;SDS011;3985;49.366;2.738;2023-02-28T11:54:34;14.50;;;12.50;;
7879;SDS011;3985;49.366;2.738;2023-02-28T11:57:14;11.00;;;11.00;;
7879;SDS011;3985;49.366;2.738;2023-02-28T11:59:54;15.25;;;13.50;;
7879;SDS011;3985;49.366;2.738;2023-02-28T12:02:28;12.00;;;10.75;;
7879;SDS011;3985;49.366;2.738;2023-02-28T12:05:03;17.00;;;13.50;;
7879;SDS011;3985;49.366;2.738;2023-02-28T12:07:38;12.00;;;12.00;;
7879;SDS011;3985;49.366;2.738;2023-02-28T12:10:17;15.75;;;13.00;;
7879;SDS011;3985;49.366;2.738;2023-02-28T12:12:51;13.00;;;13.00;;
7879;SDS011;3985;49.366;2.738;2023-02-28T12:15:37;13.50;;;12.25;;
7879;SDS011;3985;49.366;2.738;2023-02-28T12:18:33;14.50;;;11.50;;
7879;SDS011;3985;49.366;2.738;2023-02-28T12:21:15;9.25;;;9.25;;
7879;SDS011;3985;49.366;2.738;2023-02-28T12:23:51;13.00;;;11.75;;
7879;SDS011;3985;49.366;2.738;2023-02-28T12:26:31;12.00;;;12.00;;
7879;SDS011;3985;49.366;2.738;2023-02-28T12:29:04;8.00;;;8.00;;
7879;SDS011;3985;49.366;2.738;2023-02-28T12:31:40;11.75;;;11.75;;
7879;SDS011;3985;49.366;2.738;2023-02-28T12:34:14;11.00;;;11.00;;
7879;SDS011;3985;49.366;2.738;2023-02-28T12:36:45;8.25;;;8.25;;
7879;SDS011;3985;49.366;2.738;2023-02-28T12:39:15;13.00;;;10.50;;
7879;SDS011;3985;49.366;2.738;2023-02-28T12:41:46;11.75;;;11.75;;
7879;SDS011;3985;49.366;2.738;2023-02-28T12:44:19;10.75;;;10.25;;
7879;SDS011;3985;49.366;2.738;2023-02-28T12:47:02;12.75;;;12.75;;
7879;SDS011;3985;49.366;2.738;2023-02-28T12:49:36;9.25;;;9.25;;
7879;SDS011;3985;49.366;2.738;2023-02-28T12:52:07;10.75;;;10.75;;
7879;SDS011;3985;49.366;2.738;2023-02-28T12:54:37;9.75;;;9.75;;
7879;SDS011;3985;49.366;2.738;2023-02-28T12:57:14;8.50;;;8.50;;
7879;SDS011;3985;49.366;2.738;2023-02-28T12:59:48;9.75;;;9.75;;
7879;SDS011;3985;49.366;2.738;2023-02-28T13:08:28;8.50;;;8.50;;
7879;SDS011;3985;49.366;2.738;2023-02-28T13:11:14;9.00;;;9.00;;
7879;SDS011;3985;49.366;2.738;2023-02-28T13:13:57;8.50;;;8.50;;
7879;SDS011;3985;49.366;2.738;2023-02-28T13:16:26;12.50;;;12.50;;
7879;SDS011;3985;49.366;2.738;2023-02-28T13:18:56;10.75;;;10.75;;
7879;SDS011;3985;49.366;2.738;2023-02-28T13:21:43;9.25;;;9.25;;
7879;SDS011;3985;49.366;2.738;2023-02-28T13:24:11;13.00;;;13.00;;
7879;SDS011;3985;49.366;2.738;2023-02-28T13:36:00;14.50;;;11.25;;
7879;SDS011;3985;49.366;2.738;2023-02-28T13:44:16;9.25;;;9.25;;
7879;SDS011;3985;49.366;2.738;2023-02-28T13:49:50;12.00;;;10.75;;
7879;SDS011;3985;49.366;2.738;2023-02-28T13:52:20;11.75;;;11.00;;
7879;SDS011;3985;49.366;2.738;2023-02-28T13:54:56;10.00;;;10.00;;
7879;SDS011;3985;49.366;2.738;2023-02-28T13:57:43;9.25;;;9.25;;
7879;SDS011;3985;49.366;2.738;2023-02-28T14:00:19;13.00;;;13.00;;
7879;SDS011;3985;49.366;2.738;2023-02-28T14:03:06;11.00;;;11.00;;
7879;SDS011;3985;49.366;2.738;2023-02-28T14:05:41;13.25;;;12.25;;
7879;SDS011;3985;49.366;2.738;2023-02-28T14:08:11;9.75;;;9.75;;
7879;SDS011;3985;49.366;2.738;2023-02-28T14:10:44;10.00;;;10.00;;
7879;SDS011;3985;49.366;2.738;2023-02-28T14:16:15;11.25;;;11.25;;
7879;SDS011;3985;49.366;2.738;2023-02-28T14:18:49;12.50;;;10.00;;
7879;SDS011;3985;49.366;2.738;2023-02-28T14:21:25;11.75;;;11.75;;
7879;SDS011;3985;49.366;2.738;2023-02-28T14:24:03;15.50;;;13.25;;
7879;SDS011;3985;49.366;2.738;2023-02-28T14:32:59;10.00;;;10.00;;
7879;SDS011;3985;49.366;2.738;2023-02-28T14:35:39;13.50;;;12.75;;
7879;SDS011;3985;49.366;2.738;2023-02-28T14:38:17;15.50;;;15.50;;
7879;SDS011;3985;49.366;2.738;2023-02-28T14:40:50;20.25;;;15.75;;
7879;SDS011;3985;49.366;2.738;2023-02-28T14:43:22;19.25;;;17.75;;
7879;SDS011;3985;49.366;2.738;2023-02-28T14:45:52;16.50;;;14.25;;
7879;SDS011;3985;49.366;2.738;2023-02-28T14:48:21;13.50;;;13.50;;
7879;SDS011;3985;49.366;2.738;2023-02-28T14:50:51;15.75;;;14.00;;
7879;SDS011;3985;49.366;2.738;2023-02-28T14:53:20;14.25;;;12.25;;
7879;SDS011;3985;49.366;2.738;2023-02-28T14:55:49;14.50;;;12.25;;
7879;SDS011;3985;49.366;2.738;2023-02-28T14:58:24;10.75;;;10.75;;
7879;SDS011;3985;49.366;2.738;2023-02-28T15:01:20;13.75;;;13.75;;
7879;SDS011;3985;49.366;2.738;2023-02-28T15:03:56;11.25;;;11.25;;
7879;SDS011;3985;49.366;2.738;2023-02-28T15:06:26;12.00;;;12.00;;
7879;SDS011;3985;49.366;2.738;2023-02-28T15:11:37;8.25;;;8.25;;
7879;SDS011;3985;49.366;2.738;2023-02-28T15:14:23;16.00;;;13.00;;
7879;SDS011;3985;49.366;2.738;2023-02-28T15:16:55;14.25;;;14.25;;
7879;SDS011;3985;49.366;2.738;2023-02-28T15:19:26;17.00;;;15.00;;
7879;SDS011;3985;49.366;2.738;2023-02-28T15:21:56;24.25;;;21.25;;
7879;SDS011;3985;49.366;2.738;2023-02-28T15:24:30;12.00;;;12.00;;
7879;SDS011;3985;49.366;2.738;2023-02-28T15:27:05;12.00;;;11.00;;
7879;SDS011;3985;49.366;2.738;2023-02-28T15:29:42;12.75;;;12.75;;
7879;SDS011;3985;49.366;2.738;2023-02-28T15:32:21;12.00;;;12.00;;
7879;SDS011;3985;49.366;2.738;2023-02-28T15:34:53;15.50;;;10.50;;
7879;SDS011;3985;49.366;2.738;2023-02-28T15:37:27;8.00;;;8.00;;
7879;SDS011;3985;49.366;2.738;2023-02-28T15:39:57;11.50;;;11.25;;
7879;SDS011;3985;49.366;2.738;2023-02-28T15:42:31;16.50;;;15.00;;
7879;SDS011;3985;49.366;2.738;2023-02-28T15:45:00;10.75;;;8.50;;
7879;SDS011;3985;49.366;2.738;2023-02-28T15:47:35;18.75;;;17.75;;
7879;SDS011;3985;49.366;2.738;2023-02-28T15:50:06;13.75;;;13.25;;
7879;SDS011;3985;49.366;2.738;2023-02-28T15:52:41;14.50;;;12.00;;
7879;SDS011;3985;49.366;2.738;2023-02-28T15:55:10;14.00;;;14.00;;
7879;SDS011;3985;49.366;2.738;2023-02-28T15:57:42;14.25;;;14.25;;
7879;SDS011;3985;49.366;2.738;2023-02-28T16:00:18;12.00;;;12.00;;
7879;SDS011;3985;49.366;2.738;2023-02-28T16:02:47;15.00;;;12.75;;